sensor_id;sensor_type;location;lat;lon;timestamp;P1;durP1;ratioP1;P2;durP2;ratioP2
63370;SDS011;72561;48.336;14.472;2024-01-15T00:00:32;8.85;;;5.07;;
63370;SDS011;72561;48.336;14.472;2024-01-15T00:02:13;7.78;;;5.18;;
63370;SDS011;72561;48.336;14.472;2024-01-15T00:03:54;7.72;;;5.40;;
63370;SDS011;72561;48.336;14.472;2024-01-15T00:05:35;7.07;;;5.15;;
63370;SDS011;72561;48.336;14.472;2024-01-15T00:07:16;6.97;;;5.55;;
63370;SDS011;72561;48.336;14.472;2024-01-15T00:08:58;7.28;;;5.45;;
63370;SDS011;72561;48.336;14.472;2024-01-15T00:10:40;7.22;;;5.15;;
63370;SDS011;72561;48.336;14.472;2024-01-15T00:12:55;6.90;;;5.10;;
63370;SDS011;72561;48.336;14.472;2024-01-15T00:14:36;6.70;;;5.55;;
63370;SDS011;72561;48.336;14.472;2024-01-15T00:16:17;6.38;;;4.68;;
63370;SDS011;72561;48.336;14.472;2024-01-15T00:17:58;6.25;;;4.88;;
63370;SDS011;72561;48.336;14.472;2024-01-15T00:19:39;6.65;;;5.20;;
63370;SDS011;72561;48.336;14.472;2024-01-15T00:22:21;6.15;;;4.63;;
63370;SDS011;72561;48.336;14.472;2024-01-15T00:24:03;6.43;;;4.97;;
63370;SDS011;72561;48.336;14.472;2024-01-15T00:25:45;6.77;;;5.23;;
63370;SDS011;72561;48.336;14.472;2024-01-15T00:27:26;7.50;;;5.28;;
63370;SDS011;72561;48.336;14.472;2024-01-15T00:29:07;6.82;;;5.28;;
63370;SDS011;72561;48.336;14.472;2024-01-15T00:30:49;6.38;;;4.95;;
63370;SDS011;72561;48.336;14.472;2024-01-15T00:32:30;7.63;;;5.22;;
63370;SDS011;72561;48.336;14.472;2024-01-15T00:34:11;7.53;;;5.45;;
63370;SDS011;72561;48.336;14.472;2024-01-15T00:35:52;7.65;;;5.50;;
63370;SDS011;72561;48.336;14.472;2024-01-15T00:37:34;7.00;;;5.13;;
63370;SDS011;72561;48.336;14.472;2024-01-15T00:39:16;6.65;;;5.18;;
63370;SDS011;72561;48.336;14.472;2024-01-15T00:40:57;7.38;;;5.72;;
63370;SDS011;72561;48.336;14.472;2024-01-15T00:42:38;6.45;;;4.85;;
63370;SDS011;72561;48.336;14.472;2024-01-15T00:44:19;6.80;;;5.03;;
63370;SDS011;72561;48.336;14.472;2024-01-15T00:46:01;6.35;;;4.95;;
63370;SDS011;72561;48.336;14.472;2024-01-15T00:47:42;6.35;;;5.10;;
63370;SDS011;72561;48.336;14.472;2024-01-15T00:49:24;6.75;;;5.15;;
63370;SDS011;72561;48.336;14.472;2024-01-15T00:51:05;7.05;;;5.60;;
63370;SDS011;72561;48.336;14.472;2024-01-15T00:52:47;6.80;;;4.90;;
63370;SDS011;72561;48.336;14.472;2024-01-15T00:54:28;5.88;;;4.75;;
63370;SDS011;72561;48.336;14.472;2024-01-15T00:56:09;6.72;;;5.40;;
63370;SDS011;72561;48.336;14.472;2024-01-15T00:57:50;6.85;;;5.03;;
63370;SDS011;72561;48.336;14.472;2024-01-15T00:59:32;6.88;;;5.05;;
63370;SDS011;72561;48.336;14.472;2024-01-15T01:01:13;6.68;;;5.20;;
63370;SDS011;72561;48.336;14.472;2024-01-15T01:02:54;6.88;;;5.18;;
63370;SDS011;72561;48.336;14.472;2024-01-15T01:04:35;6.38;;;4.68;;
63370;SDS011;72561;48.336;14.472;2024-01-15T01:06:16;6.88;;;5.18;;
63370;SDS011;72561;48.336;14.472;2024-01-15T01:07:58;6.63;;;5.10;;
63370;SDS011;72561;48.336;14.472;2024-01-15T01:09:40;6.78;;;5.28;;
63370;SDS011;72561;48.336;14.472;2024-01-15T01:11:21;6.72;;;5.45;;
63370;SDS011;72561;48.336;14.472;2024-01-15T01:13:02;6.35;;;5.20;;
63370;SDS011;72561;48.336;14.472;2024-01-15T01:14:43;7.50;;;5.35;;
63370;SDS011;72561;48.336;14.472;2024-01-15T01:16:25;6.80;;;5.43;;
63370;SDS011;72561;48.336;14.472;2024-01-15T01:18:06;6.20;;;4.70;;
63370;SDS011;72561;48.336;14.472;2024-01-15T01:19:47;6.70;;;5.40;;
63370;SDS011;72561;48.336;14.472;2024-01-15T01:21:29;7.20;;;4.95;;
63370;SDS011;72561;48.336;14.472;2024-01-15T01:23:11;6.75;;;5.13;;
63370;SDS011;72561;48.336;14.472;2024-01-15T01:24:53;6.53;;;5.32;;
63370;SDS011;72561;48.336;14.472;2024-01-15T01:26:34;6.05;;;4.82;;
63370;SDS011;72561;48.336;14.472;2024-01-15T01:28:15;6.40;;;5.10;;
63370;SDS011;72561;48.336;14.472;2024-01-15T01:29:56;7.07;;;5.55;;
63370;SDS011;72561;48.336;14.472;2024-01-15T01:31:41;8.40;;;4.78;;
63370;SDS011;72561;48.336;14.472;2024-01-15T01:33:23;6.22;;;5.13;;
63370;SDS011;72561;48.336;14.472;2024-01-15T01:35:04;6.80;;;5.40;;
63370;SDS011;72561;48.336;14.472;2024-01-15T01:36:46;6.25;;;4.68;;
63370;SDS011;72561;48.336;14.472;2024-01-15T01:38:28;6.85;;;5.15;;
63370;SDS011;72561;48.336;14.472;2024-01-15T01:40:10;6.07;;;5.10;;
63370;SDS011;72561;48.336;14.472;2024-01-15T01:41:51;6.80;;;5.00;;
63370;SDS011;72561;48.336;14.472;2024-01-15T01:43:32;7.65;;;5.05;;
63370;SDS011;72561;48.336;14.472;2024-01-15T01:45:14;6.50;;;4.95;;
63370;SDS011;72561;48.336;14.472;2024-01-15T01:46:55;6.75;;;4.97;;
63370;SDS011;72561;48.336;14.472;2024-01-15T01:48:37;7.03;;;5.07;;
63370;SDS011;72561;48.336;14.472;2024-01-15T01:50:18;6.00;;;4.82;;
63370;SDS011;72561;48.336;14.472;2024-01-15T01:52:00;5.90;;;4.68;;
63370;SDS011;72561;48.336;14.472;2024-01-15T01:53:44;6.68;;;4.90;;
63370;SDS011;72561;48.336;14.472;2024-01-15T01:55:26;6.80;;;5.28;;
63370;SDS011;72561;48.336;14.472;2024-01-15T01:57:09;6.70;;;5.22;;
63370;SDS011;72561;48.336;14.472;2024-01-15T01:58:52;7.10;;;5.30;;
63370;SDS011;72561;48.336;14.472;2024-01-15T02:00:33;5.95;;;4.53;;
63370;SDS011;72561;48.336;14.472;2024-01-15T02:02:16;6.65;;;4.50;;
63370;SDS011;72561;48.336;14.472;2024-01-15T02:03:58;6.65;;;4.97;;
63370;SDS011;72561;48.336;14.472;2024-01-15T02:05:40;7.63;;;4.90;;
63370;SDS011;72561;48.336;14.472;2024-01-15T02:07:23;6.68;;;4.88;;
63370;SDS011;72561;48.336;14.472;2024-01-15T02:09:06;6.55;;;4.95;;
63370;SDS011;72561;48.336;14.472;2024-01-15T02:10:49;6.18;;;4.63;;
63370;SDS011;72561;48.336;14.472;2024-01-15T02:12:30;6.35;;;5.00;;
63370;SDS011;72561;48.336;14.472;2024-01-15T02:14:11;7.10;;;5.15;;
63370;SDS011;72561;48.336;14.472;2024-01-15T02:15:52;6.53;;;4.93;;
63370;SDS011;72561;48.336;14.472;2024-01-15T02:18:12;6.43;;;4.68;;
63370;SDS011;72561;48.336;14.472;2024-01-15T02:19:53;6.50;;;4.80;;
63370;SDS011;72561;48.336;14.472;2024-01-15T02:21:34;6.63;;;5.00;;
63370;SDS011;72561;48.336;14.472;2024-01-15T02:23:17;6.00;;;5.00;;
63370;SDS011;72561;48.336;14.472;2024-01-15T02:24:58;6.10;;;4.57;;
63370;SDS011;72561;48.336;14.472;2024-01-15T02:26:39;7.07;;;5.25;;
63370;SDS011;72561;48.336;14.472;2024-01-15T02:28:20;6.20;;;4.72;;
63370;SDS011;72561;48.336;14.472;2024-01-15T02:30:01;6.90;;;5.13;;
63370;SDS011;72561;48.336;14.472;2024-01-15T02:31:44;6.25;;;4.82;;
63370;SDS011;72561;48.336;14.472;2024-01-15T02:33:25;6.28;;;4.57;;
63370;SDS011;72561;48.336;14.472;2024-01-15T02:35:07;7.55;;;5.30;;
63370;SDS011;72561;48.336;14.472;2024-01-15T02:36:48;6.10;;;4.77;;
63370;SDS011;72561;48.336;14.472;2024-01-15T02:38:30;6.43;;;5.05;;
63370;SDS011;72561;48.336;14.472;2024-01-15T02:40:12;6.30;;;4.97;;
63370;SDS011;72561;48.336;14.472;2024-01-15T02:41:53;9.32;;;4.95;;
63370;SDS011;72561;48.336;14.472;2024-01-15T02:43:34;6.25;;;4.88;;
63370;SDS011;72561;48.336;14.472;2024-01-15T02:45:15;7.40;;;4.80;;
63370;SDS011;72561;48.336;14.472;2024-01-15T02:46:57;6.50;;;4.88;;
63370;SDS011;72561;48.336;14.472;2024-01-15T02:48:38;7.00;;;5.15;;
63370;SDS011;72561;48.336;14.472;2024-01-15T02:50:19;6.32;;;5.10;;
63370;SDS011;72561;48.336;14.472;2024-01-15T02:52:00;7.10;;;4.75;;
63370;SDS011;72561;48.336;14.472;2024-01-15T02:53:44;6.07;;;4.80;;
63370;SDS011;72561;48.336;14.472;2024-01-15T02:55:25;6.88;;;5.53;;
63370;SDS011;72561;48.336;14.472;2024-01-15T02:57:06;6.35;;;4.90;;
63370;SDS011;72561;48.336;14.472;2024-01-15T02:58:47;6.28;;;4.85;;
63370;SDS011;72561;48.336;14.472;2024-01-15T03:00:28;6.22;;;4.75;;
63370;SDS011;72561;48.336;14.472;2024-01-15T03:02:10;6.57;;;5.00;;
63370;SDS011;72561;48.336;14.472;2024-01-15T03:03:51;6.40;;;4.97;;
63370;SDS011;72561;48.336;14.472;2024-01-15T03:05:32;6.75;;;5.13;;
63370;SDS011;72561;48.336;14.472;2024-01-15T03:07:13;6.50;;;4.93;;
63370;SDS011;72561;48.336;14.472;2024-01-15T03:08:55;7.32;;;5.07;;
63370;SDS011;72561;48.336;14.472;2024-01-15T03:10:36;6.65;;;4.80;;
63370;SDS011;72561;48.336;14.472;2024-01-15T03:12:18;6.97;;;5.28;;
63370;SDS011;72561;48.336;14.472;2024-01-15T03:13:59;6.75;;;5.28;;
63370;SDS011;72561;48.336;14.472;2024-01-15T03:15:40;6.85;;;5.10;;
63370;SDS011;72561;48.336;14.472;2024-01-15T03:17:21;6.97;;;5.45;;
63370;SDS011;72561;48.336;14.472;2024-01-15T03:19:02;6.97;;;5.40;;
63370;SDS011;72561;48.336;14.472;2024-01-15T03:20:43;7.68;;;5.75;;
63370;SDS011;72561;48.336;14.472;2024-01-15T03:22:24;7.80;;;5.55;;
63370;SDS011;72561;48.336;14.472;2024-01-15T03:24:07;7.18;;;5.43;;
63370;SDS011;72561;48.336;14.472;2024-01-15T03:25:48;6.32;;;5.13;;
63370;SDS011;72561;48.336;14.472;2024-01-15T03:27:29;7.28;;;5.15;;
63370;SDS011;72561;48.336;14.472;2024-01-15T03:29:10;6.70;;;4.82;;
63370;SDS011;72561;48.336;14.472;2024-01-15T03:30:51;7.47;;;5.38;;
63370;SDS011;72561;48.336;14.472;2024-01-15T03:32:32;6.95;;;5.07;;
63370;SDS011;72561;48.336;14.472;2024-01-15T03:34:13;7.13;;;5.40;;
63370;SDS011;72561;48.336;14.472;2024-01-15T03:35:54;7.18;;;5.20;;
63370;SDS011;72561;48.336;14.472;2024-01-15T03:37:36;7.60;;;5.78;;
63370;SDS011;72561;48.336;14.472;2024-01-15T03:39:18;7.38;;;5.63;;
63370;SDS011;72561;48.336;14.472;2024-01-15T03:40:59;7.53;;;5.32;;
63370;SDS011;72561;48.336;14.472;2024-01-15T03:42:40;6.72;;;5.15;;
63370;SDS011;72561;48.336;14.472;2024-01-15T03:44:21;7.47;;;5.70;;
63370;SDS011;72561;48.336;14.472;2024-01-15T03:46:03;7.43;;;5.50;;
63370;SDS011;72561;48.336;14.472;2024-01-15T03:47:44;7.88;;;5.57;;
63370;SDS011;72561;48.336;14.472;2024-01-15T03:49:25;7.60;;;5.47;;
63370;SDS011;72561;48.336;14.472;2024-01-15T03:51:06;7.57;;;5.82;;
63370;SDS011;72561;48.336;14.472;2024-01-15T03:52:47;7.28;;;5.82;;
63370;SDS011;72561;48.336;14.472;2024-01-15T03:54:30;7.35;;;5.47;;
63370;SDS011;72561;48.336;14.472;2024-01-15T03:56:11;7.07;;;5.57;;
63370;SDS011;72561;48.336;14.472;2024-01-15T03:57:52;6.97;;;5.60;;
63370;SDS011;72561;48.336;14.472;2024-01-15T03:59:33;7.60;;;5.93;;
63370;SDS011;72561;48.336;14.472;2024-01-15T04:01:14;7.72;;;5.53;;
63370;SDS011;72561;48.336;14.472;2024-01-15T04:02:55;6.95;;;5.07;;
63370;SDS011;72561;48.336;14.472;2024-01-15T04:04:40;7.03;;;5.32;;
63370;SDS011;72561;48.336;14.472;2024-01-15T04:06:21;7.03;;;4.90;;
63370;SDS011;72561;48.336;14.472;2024-01-15T04:08:02;7.40;;;5.45;;
63370;SDS011;72561;48.336;14.472;2024-01-15T04:09:46;7.05;;;4.97;;
63370;SDS011;72561;48.336;14.472;2024-01-15T04:11:27;6.85;;;5.38;;
63370;SDS011;72561;48.336;14.472;2024-01-15T04:13:08;6.28;;;5.10;;
63370;SDS011;72561;48.336;14.472;2024-01-15T04:14:49;7.90;;;6.00;;
63370;SDS011;72561;48.336;14.472;2024-01-15T04:16:30;7.70;;;5.85;;
63370;SDS011;72561;48.336;14.472;2024-01-15T04:18:11;7.00;;;5.32;;
63370;SDS011;72561;48.336;14.472;2024-01-15T04:19:52;7.40;;;5.65;;
63370;SDS011;72561;48.336;14.472;2024-01-15T04:21:33;7.47;;;5.65;;
63370;SDS011;72561;48.336;14.472;2024-01-15T04:23:14;6.70;;;5.35;;
63370;SDS011;72561;48.336;14.472;2024-01-15T04:24:57;7.35;;;5.78;;
63370;SDS011;72561;48.336;14.472;2024-01-15T04:26:38;6.50;;;5.13;;
63370;SDS011;72561;48.336;14.472;2024-01-15T04:28:19;7.05;;;5.47;;
63370;SDS011;72561;48.336;14.472;2024-01-15T04:30:00;6.63;;;5.35;;
63370;SDS011;72561;48.336;14.472;2024-01-15T04:31:42;7.43;;;5.80;;
63370;SDS011;72561;48.336;14.472;2024-01-15T04:33:23;7.65;;;5.63;;
63370;SDS011;72561;48.336;14.472;2024-01-15T04:35:04;6.43;;;4.90;;
63370;SDS011;72561;48.336;14.472;2024-01-15T04:36:45;7.03;;;5.13;;
63370;SDS011;72561;48.336;14.472;2024-01-15T04:38:26;6.55;;;5.25;;
63370;SDS011;72561;48.336;14.472;2024-01-15T04:40:09;7.15;;;5.18;;
63370;SDS011;72561;48.336;14.472;2024-01-15T04:41:51;7.28;;;5.15;;
63370;SDS011;72561;48.336;14.472;2024-01-15T04:43:32;7.50;;;5.68;;
63370;SDS011;72561;48.336;14.472;2024-01-15T04:45:14;7.75;;;5.78;;
63370;SDS011;72561;48.336;14.472;2024-01-15T04:46:55;8.02;;;6.07;;
63370;SDS011;72561;48.336;14.472;2024-01-15T04:48:36;7.43;;;5.80;;
63370;SDS011;72561;48.336;14.472;2024-01-15T04:50:17;7.88;;;6.57;;
63370;SDS011;72561;48.336;14.472;2024-01-15T04:51:59;8.27;;;6.43;;
63370;SDS011;72561;48.336;14.472;2024-01-15T04:53:40;7.30;;;5.63;;
63370;SDS011;72561;48.336;14.472;2024-01-15T04:55:23;8.00;;;6.20;;
63370;SDS011;72561;48.336;14.472;2024-01-15T04:57:04;8.15;;;6.05;;
63370;SDS011;72561;48.336;14.472;2024-01-15T04:58:45;8.02;;;6.25;;
63370;SDS011;72561;48.336;14.472;2024-01-15T05:00:26;8.93;;;5.97;;
63370;SDS011;72561;48.336;14.472;2024-01-15T05:02:07;7.30;;;5.90;;
63370;SDS011;72561;48.336;14.472;2024-01-15T05:03:48;10.13;;;5.82;;
63370;SDS011;72561;48.336;14.472;2024-01-15T05:05:30;7.25;;;5.80;;
63370;SDS011;72561;48.336;14.472;2024-01-15T05:07:11;7.78;;;5.90;;
63370;SDS011;72561;48.336;14.472;2024-01-15T05:08:52;7.15;;;5.68;;
63370;SDS011;72561;48.336;14.472;2024-01-15T05:10:34;7.88;;;6.22;;
63370;SDS011;72561;48.336;14.472;2024-01-15T05:12:15;8.23;;;6.03;;
63370;SDS011;72561;48.336;14.472;2024-01-15T05:13:57;7.20;;;5.43;;
63370;SDS011;72561;48.336;14.472;2024-01-15T05:15:38;8.10;;;5.97;;
63370;SDS011;72561;48.336;14.472;2024-01-15T05:17:19;7.03;;;5.63;;
63370;SDS011;72561;48.336;14.472;2024-01-15T05:19:00;7.78;;;5.95;;
63370;SDS011;72561;48.336;14.472;2024-01-15T05:20:41;7.70;;;5.80;;
63370;SDS011;72561;48.336;14.472;2024-01-15T05:22:22;8.27;;;5.78;;
63370;SDS011;72561;48.336;14.472;2024-01-15T05:24:03;8.07;;;6.40;;
63370;SDS011;72561;48.336;14.472;2024-01-15T05:25:46;7.23;;;6.30;;
63370;SDS011;72561;48.336;14.472;2024-01-15T05:27:27;9.10;;;5.88;;
63370;SDS011;72561;48.336;14.472;2024-01-15T05:29:08;7.15;;;5.80;;
63370;SDS011;72561;48.336;14.472;2024-01-15T05:30:49;7.20;;;5.97;;
63370;SDS011;72561;48.336;14.472;2024-01-15T05:32:31;7.22;;;5.97;;
63370;SDS011;72561;48.336;14.472;2024-01-15T05:34:12;8.05;;;5.88;;
63370;SDS011;72561;48.336;14.472;2024-01-15T05:35:53;7.93;;;6.00;;
63370;SDS011;72561;48.336;14.472;2024-01-15T05:37:34;6.93;;;5.72;;
63370;SDS011;72561;48.336;14.472;2024-01-15T05:39:16;7.65;;;5.70;;
63370;SDS011;72561;48.336;14.472;2024-01-15T05:40:58;8.93;;;6.10;;
63370;SDS011;72561;48.336;14.472;2024-01-15T05:42:39;7.50;;;5.78;;
63370;SDS011;72561;48.336;14.472;2024-01-15T05:46:02;7.38;;;5.45;;
63370;SDS011;72561;48.336;14.472;2024-01-15T05:47:52;8.82;;;6.15;;
63370;SDS011;72561;48.336;14.472;2024-01-15T05:49:40;9.38;;;6.25;;
63370;SDS011;72561;48.336;14.472;2024-01-15T05:51:31;10.30;;;6.55;;
63370;SDS011;72561;48.336;14.472;2024-01-15T05:53:20;17.92;;;8.77;;
63370;SDS011;72561;48.336;14.472;2024-01-15T05:55:10;57.33;;;20.80;;
63370;SDS011;72561;48.336;14.472;2024-01-15T05:56:59;33.00;;;15.93;;
63370;SDS011;72561;48.336;14.472;2024-01-15T05:58:41;36.55;;;16.38;;
63370;SDS011;72561;48.336;14.472;2024-01-15T06:00:22;29.25;;;14.27;;
63370;SDS011;72561;48.336;14.472;2024-01-15T06:02:04;35.15;;;17.55;;
63370;SDS011;72561;48.336;14.472;2024-01-15T06:03:45;26.15;;;13.73;;
63370;SDS011;72561;48.336;14.472;2024-01-15T06:05:26;27.05;;;13.95;;
63370;SDS011;72561;48.336;14.472;2024-01-15T06:07:08;53.28;;;20.52;;
63370;SDS011;72561;48.336;14.472;2024-01-15T06:08:49;36.28;;;17.83;;
63370;SDS011;72561;48.336;14.472;2024-01-15T06:10:30;31.25;;;17.17;;
63370;SDS011;72561;48.336;14.472;2024-01-15T06:12:12;24.70;;;14.00;;
63370;SDS011;72561;48.336;14.472;2024-01-15T06:13:53;52.47;;;20.48;;
63370;SDS011;72561;48.336;14.472;2024-01-15T06:15:34;30.65;;;17.48;;
63370;SDS011;72561;48.336;14.472;2024-01-15T06:17:16;31.27;;;16.33;;
63370;SDS011;72561;48.336;14.472;2024-01-15T06:18:57;32.42;;;16.45;;
63370;SDS011;72561;48.336;14.472;2024-01-15T06:20:38;35.22;;;17.17;;
63370;SDS011;72561;48.336;14.472;2024-01-15T06:22:20;28.05;;;14.77;;
63370;SDS011;72561;48.336;14.472;2024-01-15T06:24:01;26.40;;;14.90;;
63370;SDS011;72561;48.336;14.472;2024-01-15T06:25:42;27.15;;;14.65;;
63370;SDS011;72561;48.336;14.472;2024-01-15T06:27:25;28.83;;;14.73;;
63370;SDS011;72561;48.336;14.472;2024-01-15T06:29:06;31.42;;;15.88;;
63370;SDS011;72561;48.336;14.472;2024-01-15T06:30:47;32.45;;;16.10;;
63370;SDS011;72561;48.336;14.472;2024-01-15T06:32:29;25.15;;;14.85;;
63370;SDS011;72561;48.336;14.472;2024-01-15T06:34:10;29.73;;;15.80;;
63370;SDS011;72561;48.336;14.472;2024-01-15T06:35:51;26.85;;;14.85;;
63370;SDS011;72561;48.336;14.472;2024-01-15T06:37:32;28.23;;;15.40;;
63370;SDS011;72561;48.336;14.472;2024-01-15T06:39:13;27.10;;;15.43;;
63370;SDS011;72561;48.336;14.472;2024-01-15T06:40:54;27.40;;;15.32;;
63370;SDS011;72561;48.336;14.472;2024-01-15T06:42:37;27.58;;;15.48;;
63370;SDS011;72561;48.336;14.472;2024-01-15T06:44:18;26.95;;;13.05;;
63370;SDS011;72561;48.336;14.472;2024-01-15T06:45:59;25.67;;;14.30;;
63370;SDS011;72561;48.336;14.472;2024-01-15T06:47:40;23.67;;;13.35;;
63370;SDS011;72561;48.336;14.472;2024-01-15T06:49:21;22.67;;;13.95;;
63370;SDS011;72561;48.336;14.472;2024-01-15T06:51:03;26.20;;;14.23;;
63370;SDS011;72561;48.336;14.472;2024-01-15T06:52:44;23.85;;;14.13;;
63370;SDS011;72561;48.336;14.472;2024-01-15T06:54:25;24.83;;;13.68;;
63370;SDS011;72561;48.336;14.472;2024-01-15T06:56:06;25.67;;;13.90;;
63370;SDS011;72561;48.336;14.472;2024-01-15T06:57:49;20.55;;;13.55;;
63370;SDS011;72561;48.336;14.472;2024-01-15T06:59:30;21.75;;;13.85;;
63370;SDS011;72561;48.336;14.472;2024-01-15T07:01:11;24.38;;;13.77;;
63370;SDS011;72561;48.336;14.472;2024-01-15T07:02:52;26.85;;;13.27;;
63370;SDS011;72561;48.336;14.472;2024-01-15T07:04:34;25.63;;;13.95;;
63370;SDS011;72561;48.336;14.472;2024-01-15T07:06:15;21.33;;;12.73;;
63370;SDS011;72561;48.336;14.472;2024-01-15T07:07:56;24.30;;;13.43;;
63370;SDS011;72561;48.336;14.472;2024-01-15T07:09:37;21.58;;;13.40;;
63370;SDS011;72561;48.336;14.472;2024-01-15T07:11:18;22.02;;;13.30;;
63370;SDS011;72561;48.336;14.472;2024-01-15T07:13:01;21.35;;;12.85;;
63370;SDS011;72561;48.336;14.472;2024-01-15T07:14:42;21.30;;;13.05;;
63370;SDS011;72561;48.336;14.472;2024-01-15T07:16:23;22.60;;;13.32;;
63370;SDS011;72561;48.336;14.472;2024-01-15T07:18:05;20.25;;;12.38;;
63370;SDS011;72561;48.336;14.472;2024-01-15T07:19:46;21.15;;;12.52;;
63370;SDS011;72561;48.336;14.472;2024-01-15T07:21:27;22.45;;;12.20;;
63370;SDS011;72561;48.336;14.472;2024-01-15T07:23:08;21.77;;;12.13;;
63370;SDS011;72561;48.336;14.472;2024-01-15T07:24:49;18.15;;;12.05;;
63370;SDS011;72561;48.336;14.472;2024-01-15T07:26:31;18.88;;;12.23;;
63370;SDS011;72561;48.336;14.472;2024-01-15T07:28:13;18.77;;;12.20;;
63370;SDS011;72561;48.336;14.472;2024-01-15T07:29:54;17.63;;;11.35;;
63370;SDS011;72561;48.336;14.472;2024-01-15T07:31:35;20.23;;;12.18;;
63370;SDS011;72561;48.336;14.472;2024-01-15T07:33:16;19.02;;;11.90;;
63370;SDS011;72561;48.336;14.472;2024-01-15T07:34:57;19.08;;;11.88;;
63370;SDS011;72561;48.336;14.472;2024-01-15T07:36:39;20.85;;;11.68;;
63370;SDS011;72561;48.336;14.472;2024-01-15T07:38:20;19.90;;;11.68;;
63370;SDS011;72561;48.336;14.472;2024-01-15T07:40:01;17.73;;;12.38;;
63370;SDS011;72561;48.336;14.472;2024-01-15T07:41:42;19.90;;;11.73;;
63370;SDS011;72561;48.336;14.472;2024-01-15T07:43:25;15.70;;;10.75;;
63370;SDS011;72561;48.336;14.472;2024-01-15T07:45:06;19.02;;;11.63;;
63370;SDS011;72561;48.336;14.472;2024-01-15T07:46:47;16.07;;;10.87;;
63370;SDS011;72561;48.336;14.472;2024-01-15T07:48:28;21.08;;;11.65;;
63370;SDS011;72561;48.336;14.472;2024-01-15T07:50:09;16.77;;;10.75;;
63370;SDS011;72561;48.336;14.472;2024-01-15T07:51:51;20.00;;;11.63;;
63370;SDS011;72561;48.336;14.472;2024-01-15T07:53:32;17.48;;;11.00;;
63370;SDS011;72561;48.336;14.472;2024-01-15T07:55:13;18.27;;;11.25;;
63370;SDS011;72561;48.336;14.472;2024-01-15T07:56:54;17.20;;;10.68;;
63370;SDS011;72561;48.336;14.472;2024-01-15T07:58:38;18.13;;;11.68;;
63370;SDS011;72561;48.336;14.472;2024-01-15T08:00:19;19.20;;;10.95;;
63370;SDS011;72561;48.336;14.472;2024-01-15T08:02:01;20.17;;;11.37;;
63370;SDS011;72561;48.336;14.472;2024-01-15T08:03:42;15.07;;;10.13;;
63370;SDS011;72561;48.336;14.472;2024-01-15T08:05:23;13.73;;;9.88;;
63370;SDS011;72561;48.336;14.472;2024-01-15T08:07:05;15.80;;;10.65;;
63370;SDS011;72561;48.336;14.472;2024-01-15T08:08:46;15.45;;;9.50;;
63370;SDS011;72561;48.336;14.472;2024-01-15T08:10:27;17.67;;;10.90;;
63370;SDS011;72561;48.336;14.472;2024-01-15T08:12:08;17.67;;;10.90;;
63370;SDS011;72561;48.336;14.472;2024-01-15T08:13:50;14.00;;;9.93;;
63370;SDS011;72561;48.336;14.472;2024-01-15T08:15:31;15.32;;;9.77;;
63370;SDS011;72561;48.336;14.472;2024-01-15T08:17:13;13.82;;;9.60;;
63370;SDS011;72561;48.336;14.472;2024-01-15T08:18:54;15.10;;;9.95;;
63370;SDS011;72561;48.336;14.472;2024-01-15T08:20:35;16.63;;;9.80;;
63370;SDS011;72561;48.336;14.472;2024-01-15T08:22:16;15.32;;;9.55;;
63370;SDS011;72561;48.336;14.472;2024-01-15T08:23:57;13.43;;;9.52;;
63370;SDS011;72561;48.336;14.472;2024-01-15T08:25:38;13.55;;;9.45;;
63370;SDS011;72561;48.336;14.472;2024-01-15T08:27:20;16.33;;;9.00;;
63370;SDS011;72561;48.336;14.472;2024-01-15T08:29:02;13.35;;;9.35;;
63370;SDS011;72561;48.336;14.472;2024-01-15T08:30:44;15.20;;;9.65;;
63370;SDS011;72561;48.336;14.472;2024-01-15T08:32:25;12.48;;;8.77;;
63370;SDS011;72561;48.336;14.472;2024-01-15T08:34:06;14.25;;;9.10;;
63370;SDS011;72561;48.336;14.472;2024-01-15T08:35:47;15.02;;;10.02;;
63370;SDS011;72561;48.336;14.472;2024-01-15T08:37:28;13.10;;;8.82;;
63370;SDS011;72561;48.336;14.472;2024-01-15T08:39:09;15.40;;;9.50;;
63370;SDS011;72561;48.336;14.472;2024-01-15T08:40:51;13.32;;;8.85;;
63370;SDS011;72561;48.336;14.472;2024-01-15T08:42:32;12.20;;;8.55;;
63370;SDS011;72561;48.336;14.472;2024-01-15T08:44:14;14.20;;;8.73;;
63370;SDS011;72561;48.336;14.472;2024-01-15T08:45:55;14.85;;;8.77;;
63370;SDS011;72561;48.336;14.472;2024-01-15T08:47:36;12.95;;;8.32;;
63370;SDS011;72561;48.336;14.472;2024-01-15T08:49:18;14.10;;;8.83;;
63370;SDS011;72561;48.336;14.472;2024-01-15T08:50:59;12.93;;;8.73;;
63370;SDS011;72561;48.336;14.472;2024-01-15T08:52:40;12.98;;;7.65;;
63370;SDS011;72561;48.336;14.472;2024-01-15T08:54:21;11.85;;;8.02;;
63370;SDS011;72561;48.336;14.472;2024-01-15T08:56:02;12.13;;;8.00;;
63370;SDS011;72561;48.336;14.472;2024-01-15T08:57:44;12.27;;;7.93;;
63370;SDS011;72561;48.336;14.472;2024-01-15T08:59:27;12.60;;;7.97;;
63370;SDS011;72561;48.336;14.472;2024-01-15T09:01:08;11.43;;;7.80;;
63370;SDS011;72561;48.336;14.472;2024-01-15T09:02:49;11.98;;;7.88;;
63370;SDS011;72561;48.336;14.472;2024-01-15T09:04:30;14.27;;;8.23;;
63370;SDS011;72561;48.336;14.472;2024-01-15T09:06:11;11.85;;;7.40;;
63370;SDS011;72561;48.336;14.472;2024-01-15T09:07:52;10.98;;;8.38;;
63370;SDS011;72561;48.336;14.472;2024-01-15T09:09:34;11.85;;;7.43;;
63370;SDS011;72561;48.336;14.472;2024-01-15T09:11:15;11.32;;;7.25;;
63370;SDS011;72561;48.336;14.472;2024-01-15T09:12:56;12.15;;;7.95;;
63370;SDS011;72561;48.336;14.472;2024-01-15T09:14:39;11.25;;;7.97;;
63370;SDS011;72561;48.336;14.472;2024-01-15T09:16:20;11.20;;;7.40;;
63370;SDS011;72561;48.336;14.472;2024-01-15T09:18:01;13.10;;;8.27;;
63370;SDS011;72561;48.336;14.472;2024-01-15T09:19:43;12.88;;;7.18;;
63370;SDS011;72561;48.336;14.472;2024-01-15T09:21:24;10.20;;;7.20;;
63370;SDS011;72561;48.336;14.472;2024-01-15T09:23:05;10.88;;;7.03;;
63370;SDS011;72561;48.336;14.472;2024-01-15T09:24:46;12.07;;;7.55;;
63370;SDS011;72561;48.336;14.472;2024-01-15T09:26:28;10.23;;;6.97;;
63370;SDS011;72561;48.336;14.472;2024-01-15T09:28:09;11.15;;;7.07;;
63370;SDS011;72561;48.336;14.472;2024-01-15T09:29:51;11.95;;;7.93;;
63370;SDS011;72561;48.336;14.472;2024-01-15T09:31:32;11.38;;;7.40;;
63370;SDS011;72561;48.336;14.472;2024-01-15T09:33:14;10.90;;;7.30;;
63370;SDS011;72561;48.336;14.472;2024-01-15T09:34:55;11.55;;;7.10;;
63370;SDS011;72561;48.336;14.472;2024-01-15T09:36:38;9.45;;;6.20;;
63370;SDS011;72561;48.336;14.472;2024-01-15T09:38:20;10.43;;;6.95;;
63370;SDS011;72561;48.336;14.472;2024-01-15T09:40:01;10.50;;;6.97;;
63370;SDS011;72561;48.336;14.472;2024-01-15T09:41:42;9.00;;;6.85;;
63370;SDS011;72561;48.336;14.472;2024-01-15T09:43:24;11.23;;;6.77;;
63370;SDS011;72561;48.336;14.472;2024-01-15T09:45:07;11.05;;;6.47;;
63370;SDS011;72561;48.336;14.472;2024-01-15T09:46:49;10.63;;;7.03;;
63370;SDS011;72561;48.336;14.472;2024-01-15T09:48:32;9.73;;;6.28;;
63370;SDS011;72561;48.336;14.472;2024-01-15T09:50:13;11.27;;;6.70;;
63370;SDS011;72561;48.336;14.472;2024-01-15T09:51:55;9.17;;;6.50;;
63370;SDS011;72561;48.336;14.472;2024-01-15T09:53:37;9.70;;;6.10;;
63370;SDS011;72561;48.336;14.472;2024-01-15T09:55:19;9.57;;;5.88;;
63370;SDS011;72561;48.336;14.472;2024-01-15T09:57:01;9.68;;;6.47;;
63370;SDS011;72561;48.336;14.472;2024-01-15T09:58:43;8.65;;;6.18;;
63370;SDS011;72561;48.336;14.472;2024-01-15T10:00:26;9.13;;;6.45;;